Time;durP1;ratioP1;P1;durP2;ratioP2;P2;SDS_P1;SDS_P2;PMS_P1;PMS_P2;Temp;Humidity;BMP_temperature;BMP_pressure;BME280_temperature;BME280_humidity;BME280_pressure;Samples;Min_cycle;Max_cycle;Signal;HPM_P1;HPM_P2
2022/05/27 00:01:28;;;;;;;23.70;18.17;;;;;;;;;;4994800;28;20137;-74
2022/05/27 00:03:59;;;;;;;20.00;17.65;;;;;;;;;;4994131;28;20070;-73
2022/05/27 00:06:32;;;;;;;26.73;17.88;;;;;;;;;;4993418;28;20497;-74
2022/05/27 00:09:04;;;;;;;20.58;18.33;;;;;;;;;;4994326;28;20046;-74
2022/05/27 00:11:35;;;;;;;20.10;17.17;;;;;;;;;;4994777;28;20489;-73
2022/05/27 00:14:05;;;;;;;24.67;19.73;;;;;;;;;;4994620;28;20077;-71
2022/05/27 00:16:34;;;;;;;19.60;17.63;;;;;;;;;;4994052;28;20413;-73
2022/05/27 00:19:05;;;;;;;21.67;19.55;;;;;;;;;;4994728;28;20050;-72
2022/05/27 00:21:34;;;;;;;26.77;20.92;;;;;;;;;;4993697;28;20054;-72
2022/05/27 00:24:06;;;;;;;26.13;20.20;;;;;;;;;;4994848;28;20448;-72
2022/05/27 00:26:35;;;;;;;21.83;19.20;;;;;;;;;;4994069;28;20604;-72
2022/05/27 00:29:06;;;;;;;24.50;19.38;;;;;;;;;;4994484;28;20054;-72
2022/05/27 00:31:36;;;;;;;23.45;19.73;;;;;;;;;;4994080;28;20142;-72
2022/05/27 00:34:09;;;;;;;26.45;21.80;;;;;;;;;;4994583;28;20058;-72
2022/05/27 00:36:39;;;;;;;30.13;19.60;;;;;;;;;;4994020;28;20061;-72
2022/05/27 00:39:08;;;;;;;24.20;20.92;;;;;;;;;;4994121;28;20046;-72
2022/05/27 00:41:38;;;;;;;22.10;19.80;;;;;;;;;;4994311;28;20058;-72
2022/05/27 00:44:07;;;;;;;19.77;17.77;;;;;;;;;;4977277;28;20034;-72
2022/05/27 00:46:40;;;;;;;23.92;20.10;;;;;;;;;;4993856;28;20391;-72
2022/05/27 00:49:25;;;;;;;27.00;18.92;;;;;;;;;;4979605;28;20062;-72
2022/05/27 00:52:03;;;;;;;20.88;18.50;;;;;;;;;;4998266;28;20073;-73
2022/05/27 00:54:32;;;;;;;25.67;18.23;;;;;;;;;;4998130;28;20058;-73
2022/05/27 00:57:08;;;;;;;24.42;18.92;;;;;;;;;;4981467;28;20054;-72
2022/05/27 00:59:49;;;;;;;20.67;18.45;;;;;;;;;;4980838;28;20528;-72
2022/05/27 01:02:20;;;;;;;20.88;18.58;;;;;;;;;;4981204;28;20486;-72
2022/05/27 01:04:49;;;;;;;26.30;19.85;;;;;;;;;;4997152;28;20564;-72
2022/05/27 01:07:20;;;;;;;21.92;18.33;;;;;;;;;;4981001;28;20097;-72
2022/05/27 01:09:49;;;;;;;23.23;18.08;;;;;;;;;;4997974;28;20043;-72
2022/05/27 01:12:43;;;;;;;24.30;18.25;;;;;;;;;;4997332;28;20525;-72
2022/05/27 01:15:26;;;;;;;22.80;18.13;;;;;;;;;;4981055;28;20047;-72
2022/05/27 01:20:18;;;;;;;29.85;20.42;;;;;;;;;;4997403;28;20057;-72
2022/05/27 01:21:28;;;;;;;21.80;19.38;;;;;;;;;;4983314;28;20057;-72
2022/05/27 01:24:12;;;;;;;23.27;18.35;;;;;;;;;;4997526;28;20054;-72
2022/05/27 01:26:44;;;;;;;20.67;17.75;;;;;;;;;;4997795;28;20046;-70
2022/05/27 01:29:50;;;;;;;22.38;17.20;;;;;;;;;;4980505;28;20100;-72
2022/05/27 01:32:27;;;;;;;24.27;17.42;;;;;;;;;;4997264;28;20065;-71
2022/05/27 01:34:59;;;;;;;22.90;17.08;;;;;;;;;;4996119;28;20057;-71
2022/05/27 01:37:45;;;;;;;25.48;19.20;;;;;;;;;;4997565;28;20058;-71
2022/05/27 01:40:34;;;;;;;;;;;;;;;;;;4997002;28;20050;-71
2022/05/27 01:43:14;;;;;;;21.52;17.25;;;;;;;;;;4997305;28;19922;-71
2022/05/27 01:46:22;;;;;;;24.77;17.35;;;;;;;;;;4996675;28;20500;-72
2022/05/27 01:49:12;;;;;;;20.52;16.80;;;;;;;;;;4989368;28;20100;-72
2022/05/27 01:51:59;;;;;;;21.23;18.20;;;;;;;;;;4997109;28;20054;-73
2022/05/27 01:54:34;;;;;;;23.35;18.25;;;;;;;;;;4997264;28;20057;-73
2022/05/27 01:57:24;;;;;;;;;;;;;;;;;;4997400;28;20050;-73
2022/05/27 02:00:01;;;;;;;20.45;18.13;;;;;;;;;;4994756;28;20376;-73
2022/05/27 02:03:11;;;;;;;20.13;15.93;;;;;;;;;;4979656;28;20090;-73
2022/05/27 02:06:04;;;;;;;19.08;17.05;;;;;;;;;;4996765;28;20065;-71
2022/05/27 02:08:40;;;;;;;23.15;18.20;;;;;;;;;;4979453;28;20046;-71
2022/05/27 02:11:16;;;;;;;21.92;17.85;;;;;;;;;;4996528;28;20052;-73
2022/05/27 02:14:33;;;;;;;22.13;18.63;;;;;;;;;;4996315;28;20081;-72
2022/05/27 02:17:09;;;;;;;24.90;18.38;;;;;;;;;;4936318;29;20079;-72
2022/05/27 02:20:07;;;;;;;21.50;17.70;;;;;;;;;;4994475;28;20061;-72
2022/05/27 02:22:59;;;;;;;23.95;20.15;;;;;;;;;;4979138;28;20062;-72
2022/05/27 02:25:31;;;;;;;21.88;19.58;;;;;;;;;;4996515;28;20046;-72
2022/05/27 02:28:17;;;;;;;22.75;19.50;;;;;;;;;;4979478;28;20117;-71
2022/05/27 02:30:50;;;;;;;20.58;17.63;;;;;;;;;;4996293;28;20050;-72
2022/05/27 02:36:51;;;;;;;20.58;17.85;;;;;;;;;;4996033;28;20072;-72
2022/05/27 02:39:22;;;;;;;20.20;18.33;;;;;;;;;;4994072;28;20052;-72
2022/05/27 02:42:00;;;;;;;26.30;19.63;;;;;;;;;;4996122;28;20054;-72
2022/05/27 02:44:53;;;;;;;21.50;19.17;;;;;;;;;;4996133;28;20058;-72
2022/05/27 02:47:53;;;;;;;23.77;19.92;;;;;;;;;;4995739;28;20464;-72
2022/05/27 02:50:42;;;;;;;24.23;19.50;;;;;;;;;;4978454;28;20054;-72
2022/05/27 02:53:36;;;;;;;19.67;17.63;;;;;;;;;;4996008;28;20402;-72
2022/05/27 02:56:28;;;;;;;23.23;20.80;;;;;;;;;;4995222;28;20050;-72
2022/05/27 02:58:58;;;;;;;22.75;19.88;;;;;;;;;;4996128;28;20448;-71
2022/05/27 03:01:27;;;;;;;21.58;19.27;;;;;;;;;;4995732;28;20057;-72
2022/05/27 03:03:57;;;;;;;25.50;22.27;;;;;;;;;;4995398;28;20058;-71
2022/05/27 03:06:31;;;;;;;24.95;21.27;;;;;;;;;;4995386;28;20413;-72
2022/05/27 03:09:41;;;;;;;25.00;21.42;;;;;;;;;;4995275;28;20140;-72
2022/05/27 03:12:32;;;;;;;24.95;18.83;;;;;;;;;;4994732;28;20050;-72
2022/05/27 03:15:17;;;;;;;22.23;19.85;;;;;;;;;;4995353;28;20077;-71
2022/05/27 03:17:46;;;;;;;24.38;19.63;;;;;;;;;;4995607;28;20105;-71
2022/05/27 03:20:21;;;;;;;23.48;20.17;;;;;;;;;;4995325;28;20405;-72
2022/05/27 03:23:14;;;;;;;23.77;21.27;;;;;;;;;;4978218;28;20414;-72
2022/05/27 03:25:46;;;;;;;31.48;21.95;;;;;;;;;;4995040;28;20108;-72
2022/05/27 03:28:21;;;;;;;23.80;21.00;;;;;;;;;;4995144;28;20566;-72
2022/05/27 03:31:14;;;;;;;24.52;20.23;;;;;;;;;;4978212;28;20047;-71
2022/05/27 03:34:07;;;;;;;26.00;20.42;;;;;;;;;;4990624;28;20082;-71
2022/05/27 03:37:23;;;;;;;41.13;23.67;;;;;;;;;;4994436;28;20064;-72
2022/05/27 03:40:08;;;;;;;;;;;;;;;;;;4995295;28;20061;-71
2022/05/27 03:42:38;;;;;;;24.98;19.98;;;;;;;;;;4994829;28;20284;-71
2022/05/27 03:45:11;;;;;;;28.50;20.30;;;;;;;;;;4994834;28;20509;-71
2022/05/27 03:47:42;;;;;;;24.80;20.33;;;;;;;;;;4977920;28;20058;-72
2022/05/27 03:50:18;;;;;;;26.52;20.02;;;;;;;;;;4995114;28;20293;-72
2022/05/27 03:52:51;;;;;;;27.50;20.08;;;;;;;;;;4994732;28;20061;-72
2022/05/27 03:55:25;;;;;;;27.45;20.40;;;;;;;;;;4994976;28;20104;-72
2022/05/27 03:57:55;;;;;;;;;;;;;;;;;;4994652;28;20417;-72
2022/05/27 04:00:26;;;;;;;33.55;21.48;;;;;;;;;;4994288;28;19922;-72
2022/05/27 04:02:57;;;;;;;26.05;20.48;;;;;;;;;;4994859;28;20061;-72
2022/05/27 04:05:27;;;;;;;28.48;22.08;;;;;;;;;;4994446;28;20141;-72
2022/05/27 04:07:57;;;;;;;25.75;20.38;;;;;;;;;;4994543;28;20117;-72
2022/05/27 04:10:25;;;;;;;31.17;23.30;;;;;;;;;;4993992;28;20133;-71
2022/05/27 04:12:56;;;;;;;24.85;21.52;;;;;;;;;;4994045;28;20046;-71
2022/05/27 04:15:27;;;;;;;26.13;22.10;;;;;;;;;;4994296;28;20054;-71
2022/05/27 04:17:58;;;;;;;26.95;22.95;;;;;;;;;;4994716;28;20050;-71
2022/05/27 04:20:28;;;;;;;30.98;21.92;;;;;;;;;;4994058;28;20054;-71
2022/05/27 04:22:58;;;;;;;26.45;22.83;;;;;;;;;;4993924;28;20061;-71
2022/05/27 04:25:29;;;;;;;34.35;24.10;;;;;;;;;;4994201;28;20038;-71
2022/05/27 04:27:58;;;;;;;27.05;21.67;;;;;;;;;;4994269;28;21996;-71
2022/05/27 04:30:29;;;;;;;26.00;21.80;;;;;;;;;;4994477;28;20046;-71
2022/05/27 04:32:59;;;;;;;25.98;21.67;;;;;;;;;;4993903;28;20489;-71
2022/05/27 04:35:27;;;;;;;29.45;20.35;;;;;;;;;;4994588;28;20060;-71
2022/05/27 04:37:57;;;;;;;22.95;20.55;;;;;;;;;;4994065;28;20433;-71
2022/05/27 04:40:26;;;;;;;22.73;20.15;;;;;;;;;;4993870;28;20418;-71
2022/05/27 04:42:55;;;;;;;23.83;20.67;;;;;;;;;;4993934;28;20061;-71
2022/05/27 04:45:25;;;;;;;21.73;18.75;;;;;;;;;;4994128;28;20042;-70
2022/05/27 04:47:56;;;;;;;29.17;21.83;;;;;;;;;;4987733;28;20059;-69
2022/05/27 04:50:27;;;;;;;30.15;23.45;;;;;;;;;;4974677;28;20050;-69
2022/05/27 04:52:57;;;;;;;26.25;20.40;;;;;;;;;;4974295;28;20039;-69
2022/05/27 04:55:26;;;;;;;20.40;17.98;;;;;;;;;;4986265;28;20098;-71
2022/05/27 04:57:59;;;;;;;28.08;19.60;;;;;;;;;;4976772;28;20125;-70
2022/05/27 05:00:36;;;;;;;22.05;19.83;;;;;;;;;;4993604;28;20061;-71
2022/05/27 05:03:06;;;;;;;24.23;19.92;;;;;;;;;;4993967;28;20096;-71
2022/05/27 05:05:37;;;;;;;26.95;21.15;;;;;;;;;;4993580;28;20482;-71
2022/05/27 05:08:28;;;;;;;31.50;21.65;;;;;;;;;;4993935;28;20053;-71
2022/05/27 05:10:59;;;;;;;26.85;20.27;;;;;;;;;;4977372;28;20047;-71
2022/05/27 05:13:30;;;;;;;22.02;19.70;;;;;;;;;;4993770;28;20490;-71
2022/05/27 05:15:59;;;;;;;22.80;20.35;;;;;;;;;;4993206;28;20053;-72
2022/05/27 05:18:32;;;;;;;30.02;21.15;;;;;;;;;;4993973;28;20093;-69
2022/05/27 05:21:02;;;;;;;;;;;;;;;;;;4994260;28;20125;-71
2022/05/27 05:23:37;;;;;;;24.40;19.60;;;;;;;;;;4993814;28;20416;-72
2022/05/27 05:26:08;;;;;;;24.50;21.55;;;;;;;;;;4993759;28;20046;-70
2022/05/27 05:28:37;;;;;;;23.90;21.33;;;;;;;;;;4993385;28;20117;-70
2022/05/27 05:31:11;;;;;;;24.20;20.42;;;;;;;;;;4993921;28;20054;-70
2022/05/27 05:33:41;;;;;;;26.50;23.80;;;;;;;;;;4993406;28;20058;-70
2022/05/27 05:36:12;;;;;;;22.98;19.90;;;;;;;;;;4996460;28;20054;-70
2022/05/27 05:38:41;;;;;;;23.83;21.42;;;;;;;;;;4997139;28;20074;-70
2022/05/27 05:41:12;;;;;;;31.42;23.35;;;;;;;;;;4997149;28;20092;-69
2022/05/27 05:43:42;;;;;;;25.60;22.85;;;;;;;;;;4996951;28;20062;-70
2022/05/27 05:46:13;;;;;;;28.20;23.48;;;;;;;;;;4996499;28;20065;-70
2022/05/27 05:48:44;;;;;;;32.35;24.70;;;;;;;;;;4996851;28;20476;-70
2022/05/27 05:51:14;;;;;;;29.88;22.33;;;;;;;;;;4996947;28;20104;-69
2022/05/27 05:53:45;;;;;;;26.35;23.60;;;;;;;;;;4996711;28;20051;-70
2022/05/27 05:56:15;;;;;;;28.05;23.63;;;;;;;;;;4996436;28;20042;-70
2022/05/27 05:58:51;;;;;;;27.25;24.55;;;;;;;;;;4996698;28;20133;-71
2022/05/27 06:01:21;;;;;;;32.80;25.15;;;;;;;;;;4995222;28;20149;-71
2022/05/27 06:03:51;;;;;;;32.88;25.85;;;;;;;;;;4995081;28;20145;-71
2022/05/27 06:06:21;;;;;;;37.03;28.20;;;;;;;;;;4994383;28;20651;-70
2022/05/27 06:08:50;;;;;;;35.78;28.27;;;;;;;;;;4994391;28;20050;-71
2022/05/27 06:11:21;;;;;;;29.35;23.88;;;;;;;;;;4994314;28;20541;-71
2022/05/27 06:13:51;;;;;;;38.35;26.67;;;;;;;;;;4994331;28;20133;-71
2022/05/27 06:16:21;;;;;;;30.05;26.83;;;;;;;;;;4995673;28;20054;-71
2022/05/27 06:18:53;;;;;;;33.90;26.80;;;;;;;;;;4996110;28;20096;-71
2022/05/27 06:21:22;;;;;;;30.92;26.02;;;;;;;;;;4996373;28;20053;-70
2022/05/27 06:23:52;;;;;;;30.65;26.60;;;;;;;;;;4995846;28;20068;-71
2022/05/27 06:26:23;;;;;;;32.95;24.92;;;;;;;;;;4996475;28;20043;-71
2022/05/27 06:34:29;;;;;;;39.45;27.73;;;;;;;;;;4995864;28;20054;-71
2022/05/27 06:37:19;;;;;;;28.88;25.77;;;;;;;;;;4996277;28;20093;-71
2022/05/27 06:39:52;;;;;;;26.33;23.52;;;;;;;;;;4995798;28;20066;-71
2022/05/27 06:42:24;;;;;;;28.35;24.67;;;;;;;;;;4995172;28;20042;-71
2022/05/27 06:45:10;;;;;;;;;;;;;;;;;;4996417;28;20085;-69
2022/05/27 06:47:39;;;;;;;27.65;24.92;;;;;;;;;;4995614;28;19976;-71
2022/05/27 06:50:10;;;;;;;27.27;24.45;;;;;;;;;;4995539;28;20053;-71
2022/05/27 06:52:42;;;;;;;27.60;22.65;;;;;;;;;;4995685;28;20050;-71
2022/05/27 06:55:15;;;;;;;25.38;22.83;;;;;;;;;;4996260;28;20105;-71
2022/05/27 06:57:45;;;;;;;23.35;20.63;;;;;;;;;;4995260;28;20054;-71
2022/05/27 07:00:16;;;;;;;29.73;22.27;;;;;;;;;;4995696;28;20133;-71
2022/05/27 07:02:47;;;;;;;22.98;20.35;;;;;;;;;;4995276;28;20050;-70
2022/05/27 07:05:18;;;;;;;24.35;21.75;;;;;;;;;;4996025;28;20081;-71
2022/05/27 07:07:50;;;;;;;22.90;20.58;;;;;;;;;;4995517;28;20051;-71
2022/05/27 07:10:20;;;;;;;21.27;18.20;;;;;;;;;;4995582;28;20057;-71
2022/05/27 07:12:50;;;;;;;22.67;18.35;;;;;;;;;;4995450;28;20109;-70
2022/05/27 07:15:20;;;;;;;25.70;18.88;;;;;;;;;;4995561;28;20097;-71
2022/05/27 07:17:49;;;;;;;26.75;20.85;;;;;;;;;;4995451;28;20434;-70
2022/05/27 07:20:20;;;;;;;24.15;21.40;;;;;;;;;;4995011;28;20054;-71
2022/05/27 07:22:55;;;;;;;24.25;21.55;;;;;;;;;;4995149;28;20141;-71
2022/05/27 07:25:24;;;;;;;26.70;23.85;;;;;;;;;;4995217;28;20054;-70
2022/05/27 07:27:52;;;;;;;31.83;22.80;;;;;;;;;;4995076;28;20054;-71
2022/05/27 07:30:22;;;;;;;25.77;21.10;;;;;;;;;;4994721;28;20582;-71
2022/05/27 07:32:54;;;;;;;26.08;23.40;;;;;;;;;;4995367;28;20079;-71
2022/05/27 07:35:24;;;;;;;32.67;23.90;;;;;;;;;;4994930;28;20065;-71
2022/05/27 07:37:54;;;;;;;24.10;21.58;;;;;;;;;;4995079;28;20448;-71
2022/05/27 07:40:23;;;;;;;37.67;23.65;;;;;;;;;;4994614;28;20062;-71
2022/05/27 07:42:52;;;;;;;27.00;23.45;;;;;;;;;;4994506;28;20047;-70
2022/05/27 07:45:26;;;;;;;30.65;22.60;;;;;;;;;;4995211;28;20052;-70
2022/05/27 07:47:57;;;;;;;29.23;23.92;;;;;;;;;;4994220;28;20108;-70
2022/05/27 07:50:27;;;;;;;28.10;23.13;;;;;;;;;;4994789;28;20042;-71
2022/05/27 07:52:57;;;;;;;25.85;21.15;;;;;;;;;;4994429;28;20129;-71
2022/05/27 07:55:28;;;;;;;23.10;20.10;;;;;;;;;;4995085;28;20054;-71
2022/05/27 07:57:58;;;;;;;29.58;22.90;;;;;;;;;;4993669;28;20417;-71
2022/05/27 08:00:31;;;;;;;22.40;19.65;;;;;;;;;;4994771;28;20524;-71
2022/05/27 08:03:02;;;;;;;23.58;21.10;;;;;;;;;;4994674;28;20058;-71
2022/05/27 08:05:32;;;;;;;25.15;21.88;;;;;;;;;;4994021;28;20509;-71
2022/05/27 08:08:01;;;;;;;23.92;21.02;;;;;;;;;;4994693;28;20054;-71
2022/05/27 08:10:33;;;;;;;26.20;18.33;;;;;;;;;;4993068;28;20060;-70
2022/05/27 08:13:04;;;;;;;22.15;19.60;;;;;;;;;;4994855;28;20129;-71
2022/05/27 08:15:34;;;;;;;20.05;17.95;;;;;;;;;;4994395;28;20050;-71
2022/05/27 08:18:05;;;;;;;22.98;18.25;;;;;;;;;;4994236;28;20054;-71
2022/05/27 08:20:36;;;;;;;23.00;18.25;;;;;;;;;;4994057;28;20058;-71
2022/05/27 08:23:06;;;;;;;22.08;17.30;;;;;;;;;;4994308;28;20512;-70
2022/05/27 08:25:37;;;;;;;19.58;17.45;;;;;;;;;;4994269;28;20051;-71
2022/05/27 08:28:08;;;;;;;24.58;15.90;;;;;;;;;;4994559;28;20058;-71
2022/05/27 08:30:40;;;;;;;21.98;17.52;;;;;;;;;;4994310;28;20054;-71
2022/05/27 08:33:11;;;;;;;23.75;19.42;;;;;;;;;;4993771;28;20047;-71
2022/05/27 08:38:30;;;;;;;26.20;18.65;;;;;;;;;;4994006;28;20050;-72
2022/05/27 08:41:25;;;;;;;22.77;18.50;;;;;;;;;;4994002;28;20050;-72
2022/05/27 08:44:32;;;;;;;23.65;19.73;;;;;;;;;;4992999;28;20563;-72
2022/05/27 08:47:19;;;;;;;30.05;19.25;;;;;;;;;;4964928;28;20054;-72
2022/05/27 08:49:57;;;;;;;20.45;17.05;;;;;;;;;;4993747;28;20054;-72
2022/05/27 08:53:01;;;;;;;28.77;19.40;;;;;;;;;;4992852;28;20058;-71
2022/05/27 09:01:25;;;;;;;19.95;15.95;;;;;;;;;;4994296;28;20046;-71
2022/05/27 09:04:08;;;;;;;19.63;15.40;;;;;;;;;;4994012;28;20412;-71
2022/05/27 09:07:13;;;;;;;21.83;15.82;;;;;;;;;;4993772;28;20584;-72
2022/05/27 09:10:06;;;;;;;24.45;15.50;;;;;;;;;;4995848;28;20062;-72
2022/05/27 09:12:45;;;;;;;17.10;14.27;;;;;;;;;;4997740;28;20054;-72
2022/05/27 09:15:39;;;;;;;18.20;13.30;;;;;;;;;;4997956;28;20133;-72
2022/05/27 09:18:47;;;;;;;14.55;13.02;;;;;;;;;;4995490;28;20050;-72
2022/05/27 09:21:31;;;;;;;21.55;14.30;;;;;;;;;;4997461;28;20053;-72
2022/05/27 09:24:18;;;;;;;20.23;11.38;;;;;;;;;;4996636;28;20046;-72
2022/05/27 09:27:08;;;;;;;16.45;11.13;;;;;;;;;;4997084;28;20464;-72
2022/05/27 09:29:49;;;;;;;17.17;10.15;;;;;;;;;;4996417;28;20058;-72
2022/05/27 09:32:43;;;;;;;18.05;9.55;;;;;;;;;;4997323;28;20046;-72
2022/05/27 09:35:18;;;;;;;18.60;9.98;;;;;;;;;;4997619;28;20054;-72
2022/05/27 09:38:20;;;;;;;17.60;9.65;;;;;;;;;;4997019;28;20508;-72
2022/05/27 09:41:04;;;;;;;13.70;8.93;;;;;;;;;;4980376;28;20097;-72
2022/05/27 09:43:44;;;;;;;17.00;9.63;;;;;;;;;;4979872;28;20046;-72
2022/05/27 09:46:28;;;;;;;13.20;9.13;;;;;;;;;;4997321;28;20465;-72
2022/05/27 09:48:58;;;;;;;;;;;;;;;;;;4996284;28;20121;-72
2022/05/27 09:51:31;;;;;;;17.42;9.18;;;;;;;;;;4996937;28;19922;-73
2022/05/27 09:54:25;;;;;;;15.40;7.57;;;;;;;;;;4997252;28;20096;-72
2022/05/27 09:57:11;;;;;;;14.27;8.25;;;;;;;;;;4996988;28;20583;-72
2022/05/27 09:59:53;;;;;;;23.13;9.18;;;;;;;;;;4996748;28;20513;-72
2022/05/27 10:02:34;;;;;;;15.90;7.90;;;;;;;;;;4996942;28;20062;-72
2022/05/27 10:05:05;;;;;;;17.10;9.13;;;;;;;;;;4996899;28;20058;-72
2022/05/27 10:08:00;;;;;;;18.98;8.93;;;;;;;;;;4995395;28;20349;-73
2022/05/27 10:10:35;;;;;;;14.82;9.93;;;;;;;;;;4996938;28;20058;-72
2022/05/27 10:13:24;;;;;;;23.05;11.38;;;;;;;;;;4996703;28;20054;-72
2022/05/27 10:16:05;;;;;;;15.18;8.73;;;;;;;;;;4996897;28;20050;-72
2022/05/27 10:18:36;;;;;;;18.58;10.38;;;;;;;;;;4996384;28;20058;-72
2022/05/27 10:21:15;;;;;;;22.05;9.75;;;;;;;;;;4995846;28;20108;-72
2022/05/27 10:23:48;;;;;;;20.45;10.48;;;;;;;;;;4996347;28;20422;-71
2022/05/27 10:26:21;;;;;;;18.65;9.95;;;;;;;;;;4995628;28;20109;-72
2022/05/27 10:29:17;;;;;;;16.23;7.20;;;;;;;;;;4996175;28;20066;-72
2022/05/27 10:31:55;;;;;;;14.18;6.97;;;;;;;;;;4996612;28;20061;-72
2022/05/27 10:34:45;;;;;;;19.45;7.03;;;;;;;;;;4996933;28;20516;-72
2022/05/27 10:37:22;;;;;;;14.82;5.88;;;;;;;;;;4996305;28;20051;-72
2022/05/27 10:40:12;;;;;;;9.05;4.85;;;;;;;;;;4996015;28;20050;-72
2022/05/27 10:42:47;;;;;;;13.05;5.85;;;;;;;;;;4996232;28;20058;-72
2022/05/27 10:45:22;;;;;;;15.18;5.05;;;;;;;;;;4996113;28;20138;-72
2022/05/27 10:48:11;;;;;;;12.65;4.47;;;;;;;;;;4996455;28;20062;-72
2022/05/27 10:50:52;;;;;;;13.55;5.03;;;;;;;;;;4978576;28;20070;-72
2022/05/27 10:53:46;;;;;;;13.95;4.75;;;;;;;;;;4979177;28;20398;-72
2022/05/27 10:56:37;;;;;;;16.15;5.00;;;;;;;;;;4995495;28;20046;-72
2022/05/27 11:03:21;;;;;;;19.67;5.40;;;;;;;;;;4995403;28;20113;-72
2022/05/27 11:06:16;;;;;;;13.02;4.95;;;;;;;;;;4995324;28;20053;-72
2022/05/27 11:09:09;;;;;;;13.98;4.82;;;;;;;;;;4995319;28;20046;-72
2022/05/27 11:12:09;;;;;;;10.57;4.47;;;;;;;;;;4969353;28;20515;-72
2022/05/27 11:17:49;;;;;;;9.50;4.75;;;;;;;;;;4995044;28;20440;-72
2022/05/27 11:20:31;;;;;;;11.18;4.90;;;;;;;;;;4995060;28;20058;-72
2022/05/27 11:23:21;;;;;;;16.27;5.15;;;;;;;;;;4994125;28;20069;-72
2022/05/27 11:25:58;;;;;;;10.38;4.00;;;;;;;;;;4994894;28;20038;-72
2022/05/27 11:28:51;;;;;;;12.38;4.68;;;;;;;;;;4994837;28;20030;-72
2022/05/27 11:31:27;;;;;;;12.50;4.88;;;;;;;;;;4994562;28;20097;-72
2022/05/27 11:34:24;;;;;;;14.60;4.43;;;;;;;;;;4994741;28;20463;-72
2022/05/27 11:37:09;;;;;;;12.55;4.97;;;;;;;;;;4994280;28;20062;-72
2022/05/27 11:40:16;;;;;;;12.38;4.38;;;;;;;;;;4994905;28;20055;-72
2022/05/27 11:43:29;;;;;;;13.55;4.82;;;;;;;;;;4994007;28;20046;-72
2022/05/27 11:46:13;;;;;;;15.98;5.38;;;;;;;;;;4987050;28;20101;-72
2022/05/27 11:48:50;;;;;;;8.63;4.53;;;;;;;;;;4977288;28;20046;-71
2022/05/27 11:51:30;;;;;;;12.07;5.53;;;;;;;;;;4993989;28;20046;-72
2022/05/27 11:54:11;;;;;;;16.88;4.70;;;;;;;;;;4993927;28;20141;-72
2022/05/27 11:57:05;;;;;;;14.70;4.90;;;;;;;;;;4994456;28;20173;-72
2022/05/27 11:59:48;;;;;;;15.80;4.72;;;;;;;;;;4993678;28;20493;-72
2022/05/27 12:02:26;;;;;;;;;;;;;;;;;;4977685;28;20108;-71
2022/05/27 12:04:58;;;;;;;15.95;5.72;;;;;;;;;;4993660;28;19933;-71
2022/05/27 12:07:45;;;;;;;11.75;6.05;;;;;;;;;;4994144;28;20046;-72
2022/05/27 12:10:24;;;;;;;17.70;6.13;;;;;;;;;;4976187;28;20413;-72
2022/05/27 12:13:05;;;;;;;16.30;7.20;;;;;;;;;;4976685;28;20497;-73
2022/05/27 12:15:48;;;;;;;10.15;5.47;;;;;;;;;;4976797;28;20064;-72
2022/05/27 12:18:44;;;;;;;14.13;5.80;;;;;;;;;;4992455;28;20172;-72
2022/05/27 12:21:24;;;;;;;14.00;5.25;;;;;;;;;;4973831;28;20054;-72
2022/05/27 12:24:01;;;;;;;10.23;5.35;;;;;;;;;;4993598;28;20094;-72
2022/05/27 12:26:34;;;;;;;12.98;6.57;;;;;;;;;;4993118;28;20046;-72
2022/05/27 12:29:07;;;;;;;10.23;5.75;;;;;;;;;;4992284;28;20058;-72
2022/05/27 12:31:37;;;;;;;10.25;5.07;;;;;;;;;;4993197;28;20054;-72
2022/05/27 12:34:27;;;;;;;15.25;6.68;;;;;;;;;;4976477;28;20057;-73
2022/05/27 12:37:16;;;;;;;11.55;5.13;;;;;;;;;;4992557;28;20517;-70
2022/05/27 12:39:48;;;;;;;12.88;6.10;;;;;;;;;;4993422;28;21482;-72
2022/05/27 12:42:24;;;;;;;22.75;6.65;;;;;;;;;;4992326;28;20465;-71
2022/05/27 12:44:53;;;;;;;12.05;5.75;;;;;;;;;;4998039;28;20520;-72
2022/05/27 12:47:29;;;;;;;15.30;6.20;;;;;;;;;;4999850;28;20556;-72
2022/05/27 12:50:25;;;;;;;13.75;5.32;;;;;;;;;;4998779;28;20054;-70
2022/05/27 12:52:57;;;;;;;20.98;6.53;;;;;;;;;;4982946;28;20054;-71
2022/05/27 13:02:21;;;;;;;12.05;5.65;;;;;;;;;;4999832;28;20057;-71
2022/05/27 13:04:58;;;;;;;19.02;5.60;;;;;;;;;;4999180;28;20046;-72
2022/05/27 13:07:33;;;;;;;18.65;5.30;;;;;;;;;;5000092;28;20548;-72
2022/05/27 13:10:17;;;;;;;14.40;5.10;;;;;;;;;;4999476;28;20081;-72
2022/05/27 13:13:08;;;;;;;24.55;5.15;;;;;;;;;;5000656;28;20062;-78
2022/05/27 13:15:53;;;;;;;12.48;5.90;;;;;;;;;;4999936;28;20456;-77
2022/05/27 13:18:29;;;;;;;16.05;4.68;;;;;;;;;;5001106;28;20125;-77
2022/05/27 13:21:41;;;;;;;16.80;5.70;;;;;;;;;;4999609;28;20046;-77
2022/05/27 13:24:12;;;;;;;20.50;6.32;;;;;;;;;;4939848;29;20050;-77
2022/05/27 13:27:27;;;;;;;15.55;5.95;;;;;;;;;;4995270;28;20105;-77
2022/05/27 13:30:17;;;;;;;18.50;5.10;;;;;;;;;;4999936;28;20047;-78
2022/05/27 13:32:49;;;;;;;20.70;5.75;;;;;;;;;;4999669;28;20130;-76
2022/05/27 13:35:20;;;;;;;25.40;6.05;;;;;;;;;;4979893;28;20046;-77
2022/05/27 13:38:13;;;;;;;14.32;5.68;;;;;;;;;;4999796;28;20104;-76
2022/05/27 13:40:42;;;;;;;16.85;5.75;;;;;;;;;;5000181;28;20065;-77
2022/05/27 13:43:18;;;;;;;21.65;5.05;;;;;;;;;;4999784;28;20050;-76
2022/05/27 13:46:17;;;;;;;17.30;4.80;;;;;;;;;;4981090;28;20383;-78
2022/05/27 13:49:04;;;;;;;15.57;4.95;;;;;;;;;;4999467;28;20125;-76
2022/05/27 13:51:40;;;;;;;32.47;6.70;;;;;;;;;;5000020;28;20046;-79
2022/05/27 13:54:22;;;;;;;74.70;8.63;;;;;;;;;;5000032;28;20042;-77
2022/05/27 13:56:59;;;;;;;14.88;5.47;;;;;;;;;;4994769;28;20062;-76
2022/05/27 13:59:38;;;;;;;25.48;6.28;;;;;;;;;;4996355;28;20054;-77
2022/05/27 14:02:37;;;;;;;26.10;7.25;;;;;;;;;;4995507;28;20129;-78
2022/05/27 14:05:27;;;;;;;22.10;5.32;;;;;;;;;;4989041;28;20050;-77
2022/05/27 14:07:58;;;;;;;12.93;5.70;;;;;;;;;;4994551;28;20528;-78
2022/05/27 14:10:32;;;;;;;19.48;5.25;;;;;;;;;;4996882;28;20053;-77
2022/05/27 14:13:15;;;;;;;17.30;5.32;;;;;;;;;;4996714;28;20054;-75
2022/05/27 14:15:43;;;;;;;;;;;;;;;;;;4997741;28;20474;-75
2022/05/27 14:18:54;;;;;;;12.40;4.35;;;;;;;;;;4979351;28;19922;-76
2022/05/27 14:24:20;;;;;;;10.80;4.50;;;;;;;;;;4996308;28;20050;-75
2022/05/27 14:26:51;;;;;;;16.08;5.63;;;;;;;;;;4996953;28;20056;-75
2022/05/27 14:29:22;;;;;;;16.20;4.78;;;;;;;;;;4996622;28;20064;-76
2022/05/27 14:32:03;;;;;;;14.52;5.88;;;;;;;;;;4995402;28;20046;-75
2022/05/27 14:34:33;;;;;;;10.55;4.30;;;;;;;;;;4996027;28;20054;-75
2022/05/27 14:37:21;;;;;;;13.85;4.78;;;;;;;;;;4996520;28;20046;-75
2022/05/27 14:39:50;;;;;;;15.63;3.63;;;;;;;;;;4996409;28;20105;-78
2022/05/27 14:42:20;;;;;;;11.00;4.97;;;;;;;;;;4996869;28;20409;-75
2022/05/27 14:44:50;;;;;;;10.13;4.20;;;;;;;;;;4979409;28;20061;-75
2022/05/27 14:47:27;;;;;;;15.18;3.92;;;;;;;;;;4996335;28;20093;-78
2022/05/27 14:50:12;;;;;;;9.18;3.65;;;;;;;;;;4996133;28;20059;-78
2022/05/27 14:52:44;;;;;;;13.93;4.35;;;;;;;;;;4995985;28;20061;-77
2022/05/27 14:55:22;;;;;;;18.30;5.65;;;;;;;;;;4996662;28;20057;-75
2022/05/27 14:57:56;;;;;;;16.00;5.28;;;;;;;;;;4995601;28;20058;-76
2022/05/27 15:00:50;;;;;;;15.65;4.05;;;;;;;;;;4996422;28;20059;-75
2022/05/27 15:03:35;;;;;;;17.05;5.10;;;;;;;;;;4996020;28;20058;-76
2022/05/27 15:06:15;;;;;;;8.10;4.13;;;;;;;;;;4996172;28;20050;-75
2022/05/27 15:08:47;;;;;;;9.30;4.40;;;;;;;;;;4995523;28;20054;-75
2022/05/27 15:11:22;;;;;;;9.75;4.10;;;;;;;;;;4979281;28;20055;-75
2022/05/27 15:13:59;;;;;;;19.50;4.88;;;;;;;;;;4995806;28;20066;-75
2022/05/27 15:16:34;;;;;;;12.00;4.30;;;;;;;;;;4994005;28;20047;-75
2022/05/27 15:19:15;;;;;;;16.33;4.78;;;;;;;;;;4993957;28;20058;-75
2022/05/27 15:22:00;;;;;;;12.93;4.85;;;;;;;;;;4995858;28;20442;-75
2022/05/27 15:24:35;;;;;;;14.55;4.28;;;;;;;;;;4995400;28;20049;-75
2022/05/27 15:33:07;;;;;;;12.25;4.63;;;;;;;;;;4994734;28;20062;-77
2022/05/27 15:35:47;;;;;;;13.05;5.28;;;;;;;;;;4994510;28;20449;-78
2022/05/27 15:38:38;;;;;;;14.98;5.00;;;;;;;;;;4994617;28;20502;-77
2022/05/27 15:41:09;;;;;;;21.63;5.57;;;;;;;;;;4994605;28;20050;-78
2022/05/27 15:43:42;;;;;;;11.75;4.70;;;;;;;;;;4995483;28;20093;-77
2022/05/27 15:46:15;;;;;;;15.95;4.03;;;;;;;;;;4994915;28;20129;-78
2022/05/27 15:48:44;;;;;;;;;;;;;;;;;;4996047;28;20058;-77
2022/05/27 15:51:15;;;;;;;15.77;4.40;;;;;;;;;;4995505;28;20373;-77
2022/05/27 15:53:46;;;;;;;16.98;4.30;;;;;;;;;;4994675;28;20085;-77
2022/05/27 15:56:16;;;;;;;14.32;5.32;;;;;;;;;;4995520;28;20081;-77
2022/05/27 15:58:48;;;;;;;19.35;5.20;;;;;;;;;;4994654;28;20047;-77
2022/05/27 16:01:17;;;;;;;13.95;4.85;;;;;;;;;;4995066;28;20058;-77
2022/05/27 16:03:46;;;;;;;17.65;5.07;;;;;;;;;;4994363;28;20054;-78
2022/05/27 16:06:19;;;;;;;14.68;4.70;;;;;;;;;;4994191;28;20113;-77
2022/05/27 16:08:50;;;;;;;18.05;5.75;;;;;;;;;;4994380;28;20058;-78
2022/05/27 16:11:21;;;;;;;22.20;7.13;;;;;;;;;;4994239;28;20096;-76